createdAt,value
2018-04-12T00:01:07.862Z,28.6
2018-04-12T00:11:07.776Z,31.1
2018-04-12T00:21:07.804Z,30.9
2018-04-12T00:31:07.935Z,28.9
2018-04-12T00:41:07.803Z,26.3
2018-04-12T00:51:08.041Z,25.7
2018-04-12T01:01:07.888Z,26.2
2018-04-12T01:11:07.739Z,30.5
2018-04-12T01:21:07.728Z,31.9
2018-04-12T01:31:07.592Z,30.3
2018-04-12T01:41:07.403Z,30.6
2018-04-12T01:51:07.235Z,28.5
2018-04-12T02:01:07.073Z,29.1
2018-04-12T02:11:07.933Z,29.5
2018-04-12T02:21:07.913Z,26.4
2018-04-12T02:31:07.767Z,29.0
2018-04-12T02:41:07.626Z,25.8
2018-04-12T02:51:07.466Z,23.2
2018-04-12T03:01:07.455Z,25.3
2018-04-12T03:11:07.316Z,26.1
2018-04-12T03:21:07.206Z,26.6
2018-04-12T03:31:07.043Z,26.2
2018-04-12T03:41:07.810Z,29.0
2018-04-12T03:51:07.649Z,25.1
2018-04-12T04:01:07.422Z,25.8
2018-04-12T04:11:07.940Z,27.3
2018-04-12T04:21:07.850Z,28.9
2018-04-12T04:31:07.470Z,26.8
2018-04-12T04:41:06.779Z,25.5
2018-04-12T04:51:07.746Z,26.8
2018-04-12T05:01:07.573Z,24.7
2018-04-12T05:11:07.427Z,25.0
2018-04-12T05:21:07.324Z,26.7
2018-04-12T05:31:07.088Z,29.7
2018-04-12T05:41:07.990Z,31.1
2018-04-12T05:51:07.821Z,39.1
2018-04-12T06:01:07.612Z,29.3
2018-04-12T06:11:07.416Z,33.4
2018-04-12T06:21:07.350Z,36.4
2018-04-12T06:31:07.154Z,39.5
2018-04-12T06:41:08.009Z,43.2
2018-04-12T06:51:07.892Z,43.8
2018-04-12T07:01:07.748Z,37.9
2018-04-12T07:11:07.603Z,45.5
2018-04-12T07:21:07.570Z,42.6
2018-04-12T07:31:07.394Z,34.3
2018-04-12T07:41:07.286Z,28.4
2018-04-12T07:51:07.147Z,32.6
2018-04-12T08:01:08.163Z,26.6
2018-04-12T08:11:08.030Z,28.6
2018-04-12T08:21:08.034Z,21.3
2018-04-12T08:31:07.860Z,21.0
2018-04-12T08:41:07.679Z,20.5
2018-04-12T08:51:07.488Z,14.9
2018-04-12T09:01:07.275Z,16.0
2018-04-12T09:11:07.160Z,18.0
2018-04-12T09:21:07.152Z,19.7
2018-04-12T09:31:08.009Z,12.3
2018-04-12T09:41:07.891Z,10.8
2018-04-12T09:51:07.764Z,11.6
2018-04-12T10:01:07.695Z,12.4
2018-04-12T10:11:07.581Z,11.5
2018-04-12T10:21:07.556Z,11.0
2018-04-12T10:31:07.491Z,11.3
2018-04-12T10:41:07.399Z,10.1
2018-04-12T10:51:07.232Z,9.7
2018-04-12T11:01:08.153Z,10.5
2018-04-12T11:11:08.059Z,10.8
2018-04-12T11:21:08.345Z,9.3
2018-04-12T11:31:06.304Z,9.4
2018-04-12T11:41:07.121Z,10.8
2018-04-12T11:51:07.959Z,8.7
2018-04-12T12:01:07.860Z,11.0
2018-04-12T12:11:07.722Z,11.7
2018-04-12T12:21:07.742Z,12.7
2018-04-12T12:31:07.691Z,10.4
2018-04-12T12:41:07.629Z,10.0
2018-04-12T12:51:07.574Z,10.7
2018-04-12T13:01:06.433Z,9.5
2018-04-12T13:11:07.393Z,11.6
2018-04-12T13:21:07.482Z,8.6
2018-04-12T13:31:07.418Z,10.9
2018-04-12T13:41:07.343Z,9.5
2018-04-12T13:51:07.285Z,10.1
2018-04-12T14:01:07.156Z,10.8
2018-04-12T14:11:07.998Z,9.1
2018-04-12T14:21:08.071Z,10.0
2018-04-12T14:31:06.935Z,10.1
2018-04-12T14:41:07.814Z,10.3
2018-04-12T14:51:06.710Z,8.6
2018-04-12T15:01:07.624Z,12.4
2018-04-12T15:11:07.551Z,10.1
2018-04-12T15:21:06.504Z,7.8
2018-04-12T15:31:06.262Z,8.4
2018-04-12T15:41:07.115Z,8.1
2018-04-12T15:51:07.036Z,12.8
2018-04-12T16:01:07.946Z,8.8
2018-04-12T16:11:07.833Z,9.5
2018-04-12T16:21:06.952Z,9.0
2018-04-12T16:31:07.869Z,10.3
2018-04-12T16:41:07.737Z,11.6
2018-04-12T16:51:07.805Z,12.0
2018-04-12T17:01:07.716Z,10.8
2018-04-12T17:11:07.642Z,16.3
2018-04-12T17:21:07.660Z,17.6
2018-04-12T17:31:07.549Z,12.8
2018-04-12T17:41:07.461Z,16.0
2018-04-12T17:51:07.415Z,16.3
2018-04-12T18:01:08.337Z,21.9
2018-04-12T18:11:08.287Z,17.4
2018-04-12T18:21:07.361Z,18.3
2018-04-12T18:31:08.294Z,22.0
2018-04-12T18:41:08.242Z,20.9
2018-04-12T18:51:08.105Z,20.5
2018-04-12T19:01:07.969Z,20.8
2018-04-12T19:11:07.915Z,25.2
2018-04-12T19:21:07.915Z,21.8
2018-04-12T19:31:07.827Z,22.9
2018-04-12T19:41:07.764Z,25.0
2018-04-12T19:51:07.684Z,24.1
2018-04-12T20:01:07.641Z,24.2
2018-04-12T20:11:07.590Z,23.5
2018-04-12T20:21:07.726Z,24.9
2018-04-12T20:31:07.663Z,25.1
2018-04-12T20:41:07.682Z,27.8
2018-04-12T20:51:07.663Z,24.2
2018-04-12T21:01:07.577Z,24.7
2018-04-12T21:11:07.526Z,23.3
2018-04-12T21:21:07.593Z,23.0
2018-04-12T21:31:07.501Z,28.7
2018-04-12T21:41:07.409Z,24.5
2018-04-12T21:51:08.291Z,24.6
2018-04-12T22:01:08.140Z,24.3
2018-04-12T22:11:07.987Z,26.0
2018-04-12T22:21:07.962Z,26.2
2018-04-12T22:31:07.806Z,24.4
2018-04-12T22:41:07.685Z,27.7
2018-04-12T22:51:07.549Z,28.4
2018-04-12T23:01:07.416Z,28.3
2018-04-12T23:11:08.295Z,29.6
2018-04-12T23:21:08.281Z,31.9
2018-04-12T23:31:08.141Z,32.0
2018-04-12T23:41:07.936Z,33.9
2018-04-12T23:51:07.795Z,35.3
